sensor_id;sensor_type;location;lat;lon;timestamp;temperature;humidity
4896;DHT22;2463;49.948;8.472;2023-11-21T00:01:06;10.20;99.90
4896;DHT22;2463;49.948;8.472;2023-11-21T00:03:35;10.20;99.90
4896;DHT22;2463;49.948;8.472;2023-11-21T00:06:02;10.20;99.90
4896;DHT22;2463;49.948;8.472;2023-11-21T00:08:29;10.20;99.90
4896;DHT22;2463;49.948;8.472;2023-11-21T00:10:56;10.20;99.90
4896;DHT22;2463;49.948;8.472;2023-11-21T00:13:23;10.40;99.90
4896;DHT22;2463;49.948;8.472;2023-11-21T00:15:50;10.20;99.90
4896;DHT22;2463;49.948;8.472;2023-11-21T00:18:16;10.30;99.90
4896;DHT22;2463;49.948;8.472;2023-11-21T00:20:43;10.30;99.90
4896;DHT22;2463;49.948;8.472;2023-11-21T00:23:10;10.20;99.90
4896;DHT22;2463;49.948;8.472;2023-11-21T00:25:37;10.30;99.90
4896;DHT22;2463;49.948;8.472;2023-11-21T00:28:03;10.20;99.90
4896;DHT22;2463;49.948;8.472;2023-11-21T00:30:30;10.20;99.90
4896;DHT22;2463;49.948;8.472;2023-11-21T00:32:57;10.00;99.90
4896;DHT22;2463;49.948;8.472;2023-11-21T00:35:25;10.10;99.90
4896;DHT22;2463;49.948;8.472;2023-11-21T00:37:52;10.10;99.90
4896;DHT22;2463;49.948;8.472;2023-11-21T00:40:19;10.10;99.90
4896;DHT22;2463;49.948;8.472;2023-11-21T00:42:48;10.10;99.90
4896;DHT22;2463;49.948;8.472;2023-11-21T00:45:16;10.10;99.90
4896;DHT22;2463;49.948;8.472;2023-11-21T00:47:43;10.10;99.90
4896;DHT22;2463;49.948;8.472;2023-11-21T00:50:10;10.10;99.90
4896;DHT22;2463;49.948;8.472;2023-11-21T00:52:36;10.20;99.90
4896;DHT22;2463;49.948;8.472;2023-11-21T00:55:04;10.00;99.90
4896;DHT22;2463;49.948;8.472;2023-11-21T00:57:31;10.10;99.90
4896;DHT22;2463;49.948;8.472;2023-11-21T00:59:58;10.20;99.90
4896;DHT22;2463;49.948;8.472;2023-11-21T01:02:25;10.20;99.90
4896;DHT22;2463;49.948;8.472;2023-11-21T01:04:52;10.10;99.90
4896;DHT22;2463;49.948;8.472;2023-11-21T01:07:19;10.00;99.90
4896;DHT22;2463;49.948;8.472;2023-11-21T01:09:49;10.00;99.90
4896;DHT22;2463;49.948;8.472;2023-11-21T01:12:16;10.00;99.90
4896;DHT22;2463;49.948;8.472;2023-11-21T01:14:44;10.10;99.90
4896;DHT22;2463;49.948;8.472;2023-11-21T01:17:11;10.10;99.90
4896;DHT22;2463;49.948;8.472;2023-11-21T01:19:38;10.10;99.90
4896;DHT22;2463;49.948;8.472;2023-11-21T01:22:05;10.20;99.90
4896;DHT22;2463;49.948;8.472;2023-11-21T01:24:32;10.30;99.90
4896;DHT22;2463;49.948;8.472;2023-11-21T01:26:58;10.40;99.90
4896;DHT22;2463;49.948;8.472;2023-11-21T01:29:25;10.40;99.90
4896;DHT22;2463;49.948;8.472;2023-11-21T01:31:51;10.30;99.90
4896;DHT22;2463;49.948;8.472;2023-11-21T01:34:18;10.20;99.90
4896;DHT22;2463;49.948;8.472;2023-11-21T01:36:46;10.20;99.90
4896;DHT22;2463;49.948;8.472;2023-11-21T01:39:13;10.20;99.90
4896;DHT22;2463;49.948;8.472;2023-11-21T01:41:42;10.30;99.90
4896;DHT22;2463;49.948;8.472;2023-11-21T01:44:10;10.30;99.90
4896;DHT22;2463;49.948;8.472;2023-11-21T01:46:38;10.30;99.90
4896;DHT22;2463;49.948;8.472;2023-11-21T01:49:05;10.40;99.90
4896;DHT22;2463;49.948;8.472;2023-11-21T01:51:32;10.40;99.90
4896;DHT22;2463;49.948;8.472;2023-11-21T01:53:59;10.40;99.90
4896;DHT22;2463;49.948;8.472;2023-11-21T01:56:26;10.50;99.90
4896;DHT22;2463;49.948;8.472;2023-11-21T01:58:53;10.50;99.90
4896;DHT22;2463;49.948;8.472;2023-11-21T02:01:20;10.60;99.90
4896;DHT22;2463;49.948;8.472;2023-11-21T02:03:47;10.60;99.90
4896;DHT22;2463;49.948;8.472;2023-11-21T02:06:14;10.70;99.90
4896;DHT22;2463;49.948;8.472;2023-11-21T02:08:40;10.70;99.90
4896;DHT22;2463;49.948;8.472;2023-11-21T02:11:10;10.70;99.90
4896;DHT22;2463;49.948;8.472;2023-11-21T02:13:39;10.80;99.90
4896;DHT22;2463;49.948;8.472;2023-11-21T02:16:10;10.80;99.90
4896;DHT22;2463;49.948;8.472;2023-11-21T02:18:39;10.90;99.90
4896;DHT22;2463;49.948;8.472;2023-11-21T02:21:06;10.90;99.90
4896;DHT22;2463;49.948;8.472;2023-11-21T02:23:33;10.90;99.90
4896;DHT22;2463;49.948;8.472;2023-11-21T02:26:00;10.90;99.90
4896;DHT22;2463;49.948;8.472;2023-11-21T02:28:30;10.90;99.90
4896;DHT22;2463;49.948;8.472;2023-11-21T02:30:57;10.90;99.90
4896;DHT22;2463;49.948;8.472;2023-11-21T02:33:25;10.90;99.90
4896;DHT22;2463;49.948;8.472;2023-11-21T02:35:52;11.00;99.90
4896;DHT22;2463;49.948;8.472;2023-11-21T02:38:21;11.00;99.90
4896;DHT22;2463;49.948;8.472;2023-11-21T02:40:48;11.10;99.90
4896;DHT22;2463;49.948;8.472;2023-11-21T02:43:15;11.10;99.90
4896;DHT22;2463;49.948;8.472;2023-11-21T02:45:42;11.10;99.90
4896;DHT22;2463;49.948;8.472;2023-11-21T02:48:09;11.10;99.90
4896;DHT22;2463;49.948;8.472;2023-11-21T02:50:36;11.20;99.90
4896;DHT22;2463;49.948;8.472;2023-11-21T02:53:02;11.10;99.90
4896;DHT22;2463;49.948;8.472;2023-11-21T02:55:29;11.10;99.90
4896;DHT22;2463;49.948;8.472;2023-11-21T02:57:57;11.10;99.90
4896;DHT22;2463;49.948;8.472;2023-11-21T03:00:24;11.10;99.90
4896;DHT22;2463;49.948;8.472;2023-11-21T03:02:53;11.10;99.90
4896;DHT22;2463;49.948;8.472;2023-11-21T03:05:22;11.20;99.90
4896;DHT22;2463;49.948;8.472;2023-11-21T03:07:48;11.20;99.90
4896;DHT22;2463;49.948;8.472;2023-11-21T03:10:15;11.20;99.90
4896;DHT22;2463;49.948;8.472;2023-11-21T03:12:42;11.20;99.90
4896;DHT22;2463;49.948;8.472;2023-11-21T03:15:08;11.20;99.90
4896;DHT22;2463;49.948;8.472;2023-11-21T03:17:36;11.20;99.90
4896;DHT22;2463;49.948;8.472;2023-11-21T03:20:04;11.20;99.90
4896;DHT22;2463;49.948;8.472;2023-11-21T03:22:31;11.20;99.90
4896;DHT22;2463;49.948;8.472;2023-11-21T03:24:58;11.20;99.90
4896;DHT22;2463;49.948;8.472;2023-11-21T03:27:25;11.20;99.90
4896;DHT22;2463;49.948;8.472;2023-11-21T03:29:52;11.20;99.90
4896;DHT22;2463;49.948;8.472;2023-11-21T03:32:18;11.20;99.90
4896;DHT22;2463;49.948;8.472;2023-11-21T03:34:55;11.20;99.90
4896;DHT22;2463;49.948;8.472;2023-11-21T03:37:23;11.20;99.90
4896;DHT22;2463;49.948;8.472;2023-11-21T03:39:50;11.20;99.90
4896;DHT22;2463;49.948;8.472;2023-11-21T03:42:17;11.20;99.90
4896;DHT22;2463;49.948;8.472;2023-11-21T03:44:43;11.30;99.90
4896;DHT22;2463;49.948;8.472;2023-11-21T03:47:10;11.30;99.90
4896;DHT22;2463;49.948;8.472;2023-11-21T03:49:37;11.30;99.90
4896;DHT22;2463;49.948;8.472;2023-11-21T03:52:05;11.30;99.90
4896;DHT22;2463;49.948;8.472;2023-11-21T03:54:31;11.30;99.90
4896;DHT22;2463;49.948;8.472;2023-11-21T03:56:58;11.40;99.90
4896;DHT22;2463;49.948;8.472;2023-11-21T03:59:25;11.30;99.90
4896;DHT22;2463;49.948;8.472;2023-11-21T04:01:51;11.40;99.90
4896;DHT22;2463;49.948;8.472;2023-11-21T04:04:18;11.40;99.90
4896;DHT22;2463;49.948;8.472;2023-11-21T04:06:46;11.40;99.90
4896;DHT22;2463;49.948;8.472;2023-11-21T04:09:12;11.40;99.90
4896;DHT22;2463;49.948;8.472;2023-11-21T04:11:39;11.40;99.90
4896;DHT22;2463;49.948;8.472;2023-11-21T04:14:06;11.40;99.90
4896;DHT22;2463;49.948;8.472;2023-11-21T04:16:33;11.40;99.90
4896;DHT22;2463;49.948;8.472;2023-11-21T04:19:00;11.40;99.90
4896;DHT22;2463;49.948;8.472;2023-11-21T04:21:26;11.40;99.90
4896;DHT22;2463;49.948;8.472;2023-11-21T04:23:53;11.40;99.90
4896;DHT22;2463;49.948;8.472;2023-11-21T04:26:20;11.50;99.90
4896;DHT22;2463;49.948;8.472;2023-11-21T04:28:47;11.40;99.90
4896;DHT22;2463;49.948;8.472;2023-11-21T04:31:13;11.50;99.90
4896;DHT22;2463;49.948;8.472;2023-11-21T04:33:40;11.50;99.90
4896;DHT22;2463;49.948;8.472;2023-11-21T04:36:07;11.40;99.90
4896;DHT22;2463;49.948;8.472;2023-11-21T04:38:34;11.50;99.90
4896;DHT22;2463;49.948;8.472;2023-11-21T04:41:00;11.50;99.90
4896;DHT22;2463;49.948;8.472;2023-11-21T04:43:29;11.50;99.90
4896;DHT22;2463;49.948;8.472;2023-11-21T04:45:56;11.40;99.90
4896;DHT22;2463;49.948;8.472;2023-11-21T04:48:22;11.40;99.90
4896;DHT22;2463;49.948;8.472;2023-11-21T04:50:49;11.40;99.90
4896;DHT22;2463;49.948;8.472;2023-11-21T04:53:16;11.40;99.90
4896;DHT22;2463;49.948;8.472;2023-11-21T04:55:43;11.40;99.90
4896;DHT22;2463;49.948;8.472;2023-11-21T04:58:10;11.40;99.90
4896;DHT22;2463;49.948;8.472;2023-11-21T05:00:38;11.40;99.90
4896;DHT22;2463;49.948;8.472;2023-11-21T05:03:06;11.40;99.90
4896;DHT22;2463;49.948;8.472;2023-11-21T05:05:34;11.40;99.90
4896;DHT22;2463;49.948;8.472;2023-11-21T05:08:00;11.40;99.90
4896;DHT22;2463;49.948;8.472;2023-11-21T05:10:28;11.40;99.90
4896;DHT22;2463;49.948;8.472;2023-11-21T05:12:55;11.40;99.90
4896;DHT22;2463;49.948;8.472;2023-11-21T05:15:22;11.40;99.90
4896;DHT22;2463;49.948;8.472;2023-11-21T05:17:49;11.40;99.90
4896;DHT22;2463;49.948;8.472;2023-11-21T05:20:18;11.40;99.90
4896;DHT22;2463;49.948;8.472;2023-11-21T05:22:48;11.50;99.90
4896;DHT22;2463;49.948;8.472;2023-11-21T05:25:16;11.40;99.90
4896;DHT22;2463;49.948;8.472;2023-11-21T05:27:47;11.40;99.90
4896;DHT22;2463;49.948;8.472;2023-11-21T05:30:14;11.40;99.90
4896;DHT22;2463;49.948;8.472;2023-11-21T05:32:41;11.40;99.90
4896;DHT22;2463;49.948;8.472;2023-11-21T05:35:13;11.40;99.90
4896;DHT22;2463;49.948;8.472;2023-11-21T05:37:44;11.30;99.90
4896;DHT22;2463;49.948;8.472;2023-11-21T05:40:12;11.40;99.90
4896;DHT22;2463;49.948;8.472;2023-11-21T05:42:40;11.30;99.90
4896;DHT22;2463;49.948;8.472;2023-11-21T05:45:07;11.30;99.90
4896;DHT22;2463;49.948;8.472;2023-11-21T05:47:43;11.30;99.90
4896;DHT22;2463;49.948;8.472;2023-11-21T05:50:11;11.30;99.90
4896;DHT22;2463;49.948;8.472;2023-11-21T05:52:43;11.30;99.90
4896;DHT22;2463;49.948;8.472;2023-11-21T05:55:10;11.30;99.90
4896;DHT22;2463;49.948;8.472;2023-11-21T05:57:38;11.30;99.90
4896;DHT22;2463;49.948;8.472;2023-11-21T06:00:07;11.30;99.90
4896;DHT22;2463;49.948;8.472;2023-11-21T06:02:38;11.30;99.90
4896;DHT22;2463;49.948;8.472;2023-11-21T06:05:09;11.30;99.90
4896;DHT22;2463;49.948;8.472;2023-11-21T06:07:37;11.30;99.90
4896;DHT22;2463;49.948;8.472;2023-11-21T06:10:04;11.30;99.90
4896;DHT22;2463;49.948;8.472;2023-11-21T06:12:38;11.30;99.90
4896;DHT22;2463;49.948;8.472;2023-11-21T06:15:05;11.30;99.90
4896;DHT22;2463;49.948;8.472;2023-11-21T06:17:35;11.30;99.90
4896;DHT22;2463;49.948;8.472;2023-11-21T06:20:03;11.20;99.90
4896;DHT22;2463;49.948;8.472;2023-11-21T06:22:41;11.20;99.90
4896;DHT22;2463;49.948;8.472;2023-11-21T06:25:09;11.20;99.90
4896;DHT22;2463;49.948;8.472;2023-11-21T06:27:46;11.20;99.90
4896;DHT22;2463;49.948;8.472;2023-11-21T06:30:15;11.20;99.90
4896;DHT22;2463;49.948;8.472;2023-11-21T06:32:42;11.20;99.90
4896;DHT22;2463;49.948;8.472;2023-11-21T06:35:14;11.20;99.90
4896;DHT22;2463;49.948;8.472;2023-11-21T06:37:42;11.20;99.90
4896;DHT22;2463;49.948;8.472;2023-11-21T06:40:14;11.20;99.90
4896;DHT22;2463;49.948;8.472;2023-11-21T06:42:45;11.20;99.90
4896;DHT22;2463;49.948;8.472;2023-11-21T06:45:13;11.20;99.90
4896;DHT22;2463;49.948;8.472;2023-11-21T06:47:41;11.20;99.90
4896;DHT22;2463;49.948;8.472;2023-11-21T06:50:08;11.20;99.90
4896;DHT22;2463;49.948;8.472;2023-11-21T06:52:35;11.20;99.90
4896;DHT22;2463;49.948;8.472;2023-11-21T06:55:02;11.20;99.90
4896;DHT22;2463;49.948;8.472;2023-11-21T06:57:29;11.20;99.90
4896;DHT22;2463;49.948;8.472;2023-11-21T06:59:56;11.20;99.90
4896;DHT22;2463;49.948;8.472;2023-11-21T07:02:23;11.20;99.90
4896;DHT22;2463;49.948;8.472;2023-11-21T07:04:50;11.10;99.90
4896;DHT22;2463;49.948;8.472;2023-11-21T07:07:18;11.20;99.90
4896;DHT22;2463;49.948;8.472;2023-11-21T07:09:45;11.20;99.90
4896;DHT22;2463;49.948;8.472;2023-11-21T07:12:12;11.20;99.90
4896;DHT22;2463;49.948;8.472;2023-11-21T07:14:38;11.20;99.90
4896;DHT22;2463;49.948;8.472;2023-11-21T07:17:07;11.20;99.90
4896;DHT22;2463;49.948;8.472;2023-11-21T07:19:34;11.20;99.90
4896;DHT22;2463;49.948;8.472;2023-11-21T07:22:01;11.20;99.90
4896;DHT22;2463;49.948;8.472;2023-11-21T07:24:27;11.20;99.90
4896;DHT22;2463;49.948;8.472;2023-11-21T07:26:54;11.20;99.90
4896;DHT22;2463;49.948;8.472;2023-11-21T07:29:23;11.20;99.90
4896;DHT22;2463;49.948;8.472;2023-11-21T07:31:53;11.20;99.90
4896;DHT22;2463;49.948;8.472;2023-11-21T07:34:20;11.20;99.90
4896;DHT22;2463;49.948;8.472;2023-11-21T07:36:47;11.20;99.90
4896;DHT22;2463;49.948;8.472;2023-11-21T07:39:14;11.20;99.90
4896;DHT22;2463;49.948;8.472;2023-11-21T07:41:42;11.20;99.90
4896;DHT22;2463;49.948;8.472;2023-11-21T07:44:16;11.20;99.90
4896;DHT22;2463;49.948;8.472;2023-11-21T07:46:44;11.30;99.90
4896;DHT22;2463;49.948;8.472;2023-11-21T07:49:11;11.20;99.90
4896;DHT22;2463;49.948;8.472;2023-11-21T07:51:37;11.30;99.90
4896;DHT22;2463;49.948;8.472;2023-11-21T07:54:05;11.30;99.90
4896;DHT22;2463;49.948;8.472;2023-11-21T07:56:32;11.30;99.90
4896;DHT22;2463;49.948;8.472;2023-11-21T07:58:58;11.30;99.90
4896;DHT22;2463;49.948;8.472;2023-11-21T08:01:25;11.30;99.90
4896;DHT22;2463;49.948;8.472;2023-11-21T08:03:52;11.40;99.90
4896;DHT22;2463;49.948;8.472;2023-11-21T08:06:19;11.40;99.90
4896;DHT22;2463;49.948;8.472;2023-11-21T08:08:46;11.40;99.90
4896;DHT22;2463;49.948;8.472;2023-11-21T08:11:12;11.50;99.90
4896;DHT22;2463;49.948;8.472;2023-11-21T08:13:39;11.60;99.90
4896;DHT22;2463;49.948;8.472;2023-11-21T08:16:06;11.70;99.90
4896;DHT22;2463;49.948;8.472;2023-11-21T08:18:33;11.80;99.90
4896;DHT22;2463;49.948;8.472;2023-11-21T08:21:00;11.90;99.90
4896;DHT22;2463;49.948;8.472;2023-11-21T08:23:27;12.00;99.90
4896;DHT22;2463;49.948;8.472;2023-11-21T08:25:54;12.00;99.90
4896;DHT22;2463;49.948;8.472;2023-11-21T08:28:21;12.10;99.90
4896;DHT22;2463;49.948;8.472;2023-11-21T08:30:49;12.10;99.90
4896;DHT22;2463;49.948;8.472;2023-11-21T08:33:16;12.10;99.90
4896;DHT22;2463;49.948;8.472;2023-11-21T08:35:43;12.20;99.90
4896;DHT22;2463;49.948;8.472;2023-11-21T08:38:10;12.20;99.90
4896;DHT22;2463;49.948;8.472;2023-11-21T08:40:37;12.20;99.90
4896;DHT22;2463;49.948;8.472;2023-11-21T08:43:03;12.30;99.90
4896;DHT22;2463;49.948;8.472;2023-11-21T08:45:34;12.30;99.90
4896;DHT22;2463;49.948;8.472;2023-11-21T08:48:01;12.30;99.90
4896;DHT22;2463;49.948;8.472;2023-11-21T08:50:28;12.30;99.90
4896;DHT22;2463;49.948;8.472;2023-11-21T08:52:55;12.40;99.90
4896;DHT22;2463;49.948;8.472;2023-11-21T08:55:22;12.40;99.90
4896;DHT22;2463;49.948;8.472;2023-11-21T08:57:49;12.50;99.90
4896;DHT22;2463;49.948;8.472;2023-11-21T09:00:16;12.50;99.90
4896;DHT22;2463;49.948;8.472;2023-11-21T09:02:46;12.60;99.90
4896;DHT22;2463;49.948;8.472;2023-11-21T09:05:13;12.60;99.90
4896;DHT22;2463;49.948;8.472;2023-11-21T09:07:42;12.60;99.90
4896;DHT22;2463;49.948;8.472;2023-11-21T09:10:09;12.60;99.90
4896;DHT22;2463;49.948;8.472;2023-11-21T09:12:37;12.60;99.90
4896;DHT22;2463;49.948;8.472;2023-11-21T09:15:07;12.60;99.90
4896;DHT22;2463;49.948;8.472;2023-11-21T09:17:36;12.60;99.90
4896;DHT22;2463;49.948;8.472;2023-11-21T09:20:04;12.50;99.90
4896;DHT22;2463;49.948;8.472;2023-11-21T09:22:32;12.50;99.90
4896;DHT22;2463;49.948;8.472;2023-11-21T09:24:59;12.40;99.90
4896;DHT22;2463;49.948;8.472;2023-11-21T09:27:26;12.50;99.90
4896;DHT22;2463;49.948;8.472;2023-11-21T09:29:52;12.40;99.90
4896;DHT22;2463;49.948;8.472;2023-11-21T09:32:20;12.40;99.90
4896;DHT22;2463;49.948;8.472;2023-11-21T09:34:49;12.40;99.90
4896;DHT22;2463;49.948;8.472;2023-11-21T09:37:16;12.40;99.90
4896;DHT22;2463;49.948;8.472;2023-11-21T09:39:43;12.40;99.90
4896;DHT22;2463;49.948;8.472;2023-11-21T09:42:13;12.40;99.90
4896;DHT22;2463;49.948;8.472;2023-11-21T09:47:30;12.50;99.90
4896;DHT22;2463;49.948;8.472;2023-11-21T09:49:57;12.50;99.90
4896;DHT22;2463;49.948;8.472;2023-11-21T09:52:28;12.40;99.90
4896;DHT22;2463;49.948;8.472;2023-11-21T09:54:55;12.50;99.90
4896;DHT22;2463;49.948;8.472;2023-11-21T09:57:25;12.50;99.90
4896;DHT22;2463;49.948;8.472;2023-11-21T09:59:54;12.50;99.90
4896;DHT22;2463;49.948;8.472;2023-11-21T10:02:26;12.50;99.90
4896;DHT22;2463;49.948;8.472;2023-11-21T10:04:56;12.60;99.90
4896;DHT22;2463;49.948;8.472;2023-11-21T10:07:23;12.60;99.90
4896;DHT22;2463;49.948;8.472;2023-11-21T10:09:51;12.70;99.90
4896;DHT22;2463;49.948;8.472;2023-11-21T10:12:19;12.70;99.90
4896;DHT22;2463;49.948;8.472;2023-11-21T10:14:49;12.80;99.90
4896;DHT22;2463;49.948;8.472;2023-11-21T10:17:17;12.90;99.90
4896;DHT22;2463;49.948;8.472;2023-11-21T10:19:48;12.90;99.90
4896;DHT22;2463;49.948;8.472;2023-11-21T10:22:15;13.00;99.90
4896;DHT22;2463;49.948;8.472;2023-11-21T10:24:43;13.10;99.90
4896;DHT22;2463;49.948;8.472;2023-11-21T10:27:19;13.20;99.90
4896;DHT22;2463;49.948;8.472;2023-11-21T10:29:46;13.30;99.90
4896;DHT22;2463;49.948;8.472;2023-11-21T10:32:12;13.40;99.90
4896;DHT22;2463;49.948;8.472;2023-11-21T10:34:39;13.50;99.90
4896;DHT22;2463;49.948;8.472;2023-11-21T10:37:11;13.50;99.90
4896;DHT22;2463;49.948;8.472;2023-11-21T10:39:39;13.60;99.90
4896;DHT22;2463;49.948;8.472;2023-11-21T10:42:08;13.70;99.90
4896;DHT22;2463;49.948;8.472;2023-11-21T10:44:35;13.90;99.90
4896;DHT22;2463;49.948;8.472;2023-11-21T10:47:02;14.00;99.90
4896;DHT22;2463;49.948;8.472;2023-11-21T10:49:30;14.20;99.90
4896;DHT22;2463;49.948;8.472;2023-11-21T10:51:56;14.40;99.90
4896;DHT22;2463;49.948;8.472;2023-11-21T10:54:24;14.50;99.90
4896;DHT22;2463;49.948;8.472;2023-11-21T10:56:59;14.70;99.90
4896;DHT22;2463;49.948;8.472;2023-11-21T10:59:29;15.00;99.90
4896;DHT22;2463;49.948;8.472;2023-11-21T11:01:58;15.30;99.90
4896;DHT22;2463;49.948;8.472;2023-11-21T11:04:29;15.80;99.90
4896;DHT22;2463;49.948;8.472;2023-11-21T11:07:02;16.90;99.90
4896;DHT22;2463;49.948;8.472;2023-11-21T11:09:32;18.60;99.90
4896;DHT22;2463;49.948;8.472;2023-11-21T11:12:02;21.20;99.90
4896;DHT22;2463;49.948;8.472;2023-11-21T11:14:29;23.70;99.90
4896;DHT22;2463;49.948;8.472;2023-11-21T11:16:56;26.30;99.90
4896;DHT22;2463;49.948;8.472;2023-11-21T11:19:23;28.70;99.90
4896;DHT22;2463;49.948;8.472;2023-11-21T11:27:59;33.40;90.20
4896;DHT22;2463;49.948;8.472;2023-11-21T11:30:52;33.90;84.60
4896;DHT22;2463;49.948;8.472;2023-11-21T11:33:39;34.00;77.70
4896;DHT22;2463;49.948;8.472;2023-11-21T11:36:22;32.80;76.40
4896;DHT22;2463;49.948;8.472;2023-11-21T11:38:52;31.20;79.00
4896;DHT22;2463;49.948;8.472;2023-11-21T11:41:26;29.80;78.40
4896;DHT22;2463;49.948;8.472;2023-11-21T11:43:54;28.60;81.70
4896;DHT22;2463;49.948;8.472;2023-11-21T11:46:20;27.50;84.60
4896;DHT22;2463;49.948;8.472;2023-11-21T11:49:07;26.50;85.60
4896;DHT22;2463;49.948;8.472;2023-11-21T11:51:34;25.40;87.70
4896;DHT22;2463;49.948;8.472;2023-11-21T11:54:02;24.50;90.60
4896;DHT22;2463;49.948;8.472;2023-11-21T11:56:31;23.60;90.70
4896;DHT22;2463;49.948;8.472;2023-11-21T11:59:02;22.90;91.20
4896;DHT22;2463;49.948;8.472;2023-11-21T12:01:31;22.20;92.40
4896;DHT22;2463;49.948;8.472;2023-11-21T12:06:41;21.10;96.00
4896;DHT22;2463;49.948;8.472;2023-11-21T12:09:21;20.60;97.40
4896;DHT22;2463;49.948;8.472;2023-11-21T12:11:48;20.10;97.70
4896;DHT22;2463;49.948;8.472;2023-11-21T12:14:16;19.80;99.30
4896;DHT22;2463;49.948;8.472;2023-11-21T12:16:43;19.50;99.90
4896;DHT22;2463;49.948;8.472;2023-11-21T12:19:11;19.20;99.90
4896;DHT22;2463;49.948;8.472;2023-11-21T12:21:38;18.90;99.90
4896;DHT22;2463;49.948;8.472;2023-11-21T12:24:07;18.60;99.90
4896;DHT22;2463;49.948;8.472;2023-11-21T12:26:40;18.40;99.90
4896;DHT22;2463;49.948;8.472;2023-11-21T12:29:07;18.10;99.90
4896;DHT22;2463;49.948;8.472;2023-11-21T12:31:37;17.90;99.90
4896;DHT22;2463;49.948;8.472;2023-11-21T12:34:04;17.60;99.90
4896;DHT22;2463;49.948;8.472;2023-11-21T12:36:31;17.40;99.90
4896;DHT22;2463;49.948;8.472;2023-11-21T12:38:58;17.20;99.90
4896;DHT22;2463;49.948;8.472;2023-11-21T12:41:25;17.00;99.90
4896;DHT22;2463;49.948;8.472;2023-11-21T12:43:52;16.80;99.90
4896;DHT22;2463;49.948;8.472;2023-11-21T12:46:19;16.70;99.90
4896;DHT22;2463;49.948;8.472;2023-11-21T12:48:47;16.50;99.90
4896;DHT22;2463;49.948;8.472;2023-11-21T12:51:14;16.40;99.90
4896;DHT22;2463;49.948;8.472;2023-11-21T12:53:42;16.20;99.90
4896;DHT22;2463;49.948;8.472;2023-11-21T12:56:12;16.10;99.90
4896;DHT22;2463;49.948;8.472;2023-11-21T12:58:44;16.00;99.90
4896;DHT22;2463;49.948;8.472;2023-11-21T13:01:13;15.90;99.90
4896;DHT22;2463;49.948;8.472;2023-11-21T13:03:48;15.80;99.90
4896;DHT22;2463;49.948;8.472;2023-11-21T13:06:15;15.60;99.90
4896;DHT22;2463;49.948;8.472;2023-11-21T13:08:44;15.50;99.90
4896;DHT22;2463;49.948;8.472;2023-11-21T13:11:11;15.40;99.90
4896;DHT22;2463;49.948;8.472;2023-11-21T13:13:41;15.20;99.90
4896;DHT22;2463;49.948;8.472;2023-11-21T13:16:11;15.00;99.90
4896;DHT22;2463;49.948;8.472;2023-11-21T13:18:39;14.90;99.90
4896;DHT22;2463;49.948;8.472;2023-11-21T13:21:08;14.70;99.90
4896;DHT22;2463;49.948;8.472;2023-11-21T13:23:43;14.60;99.90
4896;DHT22;2463;49.948;8.472;2023-11-21T13:26:12;14.50;99.90
4896;DHT22;2463;49.948;8.472;2023-11-21T13:28:41;14.40;99.90
4896;DHT22;2463;49.948;8.472;2023-11-21T13:31:12;14.30;99.90
4896;DHT22;2463;49.948;8.472;2023-11-21T13:33:53;14.30;99.90
4896;DHT22;2463;49.948;8.472;2023-11-21T13:36:24;14.20;99.90
4896;DHT22;2463;49.948;8.472;2023-11-21T13:38:52;14.10;99.90
4896;DHT22;2463;49.948;8.472;2023-11-21T13:41:21;14.00;99.90
4896;DHT22;2463;49.948;8.472;2023-11-21T13:43:57;13.80;99.90
4896;DHT22;2463;49.948;8.472;2023-11-21T13:46:40;13.80;99.90
4896;DHT22;2463;49.948;8.472;2023-11-21T13:49:07;13.70;99.90
4896;DHT22;2463;49.948;8.472;2023-11-21T13:51:37;13.70;99.90
4896;DHT22;2463;49.948;8.472;2023-11-21T13:54:14;13.50;99.90
4896;DHT22;2463;49.948;8.472;2023-11-21T13:56:41;13.50;99.90
4896;DHT22;2463;49.948;8.472;2023-11-21T13:59:10;13.50;99.90
4896;DHT22;2463;49.948;8.472;2023-11-21T14:01:50;13.50;99.90
4896;DHT22;2463;49.948;8.472;2023-11-21T14:04:20;13.50;99.90
4896;DHT22;2463;49.948;8.472;2023-11-21T14:07:01;13.50;99.90
4896;DHT22;2463;49.948;8.472;2023-11-21T14:09:43;13.50;99.90
4896;DHT22;2463;49.948;8.472;2023-11-21T14:12:11;13.50;99.90
4896;DHT22;2463;49.948;8.472;2023-11-21T14:14:40;13.50;99.90
4896;DHT22;2463;49.948;8.472;2023-11-21T14:17:06;13.50;99.90
4896;DHT22;2463;49.948;8.472;2023-11-21T14:19:33;13.50;99.90
4896;DHT22;2463;49.948;8.472;2023-11-21T14:22:03;13.50;99.90
4896;DHT22;2463;49.948;8.472;2023-11-21T14:24:30;13.50;99.90
4896;DHT22;2463;49.948;8.472;2023-11-21T14:26:58;13.50;99.90
4896;DHT22;2463;49.948;8.472;2023-11-21T14:29:26;13.50;99.90
4896;DHT22;2463;49.948;8.472;2023-11-21T14:31:54;13.60;99.90
4896;DHT22;2463;49.948;8.472;2023-11-21T14:34:23;13.60;99.90
4896;DHT22;2463;49.948;8.472;2023-11-21T14:36:50;13.60;99.90
4896;DHT22;2463;49.948;8.472;2023-11-21T14:39:17;13.60;99.90
4896;DHT22;2463;49.948;8.472;2023-11-21T14:41:51;13.60;99.90
4896;DHT22;2463;49.948;8.472;2023-11-21T14:44:20;13.60;99.90
4896;DHT22;2463;49.948;8.472;2023-11-21T14:46:47;13.60;99.90
4896;DHT22;2463;49.948;8.472;2023-11-21T14:49:17;13.60;99.90
4896;DHT22;2463;49.948;8.472;2023-11-21T14:51:47;13.60;99.90
4896;DHT22;2463;49.948;8.472;2023-11-21T14:54:28;13.50;99.90
4896;DHT22;2463;49.948;8.472;2023-11-21T14:57:13;13.60;99.90
4896;DHT22;2463;49.948;8.472;2023-11-21T14:59:45;13.50;99.90
4896;DHT22;2463;49.948;8.472;2023-11-21T15:02:20;13.30;99.90
4896;DHT22;2463;49.948;8.472;2023-11-21T15:04:49;13.30;99.90
4896;DHT22;2463;49.948;8.472;2023-11-21T15:07:19;13.20;99.90
4896;DHT22;2463;49.948;8.472;2023-11-21T15:09:46;13.20;99.90
4896;DHT22;2463;49.948;8.472;2023-11-21T15:12:12;13.10;99.90
4896;DHT22;2463;49.948;8.472;2023-11-21T15:14:50;13.00;99.90
4896;DHT22;2463;49.948;8.472;2023-11-21T15:17:20;13.00;99.90
4896;DHT22;2463;49.948;8.472;2023-11-21T15:19:53;12.90;99.90
4896;DHT22;2463;49.948;8.472;2023-11-21T15:22:20;12.80;99.90
4896;DHT22;2463;49.948;8.472;2023-11-21T15:24:48;12.80;99.90
4896;DHT22;2463;49.948;8.472;2023-11-21T15:27:16;12.80;99.90
4896;DHT22;2463;49.948;8.472;2023-11-21T15:29:43;12.80;99.90
4896;DHT22;2463;49.948;8.472;2023-11-21T15:32:11;12.70;99.90
4896;DHT22;2463;49.948;8.472;2023-11-21T15:34:38;12.70;99.90
4896;DHT22;2463;49.948;8.472;2023-11-21T15:37:06;12.70;99.90
4896;DHT22;2463;49.948;8.472;2023-11-21T15:39:36;12.60;99.90
4896;DHT22;2463;49.948;8.472;2023-11-21T15:42:03;12.60;99.90
4896;DHT22;2463;49.948;8.472;2023-11-21T15:44:31;12.60;99.90
4896;DHT22;2463;49.948;8.472;2023-11-21T15:47:00;12.60;99.90
4896;DHT22;2463;49.948;8.472;2023-11-21T15:49:26;12.50;99.90
4896;DHT22;2463;49.948;8.472;2023-11-21T15:51:55;12.50;99.90
4896;DHT22;2463;49.948;8.472;2023-11-21T15:54:26;12.50;99.90
4896;DHT22;2463;49.948;8.472;2023-11-21T15:56:56;12.50;99.90
4896;DHT22;2463;49.948;8.472;2023-11-21T15:59:27;12.50;99.90
4896;DHT22;2463;49.948;8.472;2023-11-21T16:01:58;12.50;99.90
4896;DHT22;2463;49.948;8.472;2023-11-21T16:04:25;12.40;99.90
4896;DHT22;2463;49.948;8.472;2023-11-21T16:06:55;12.40;99.90
4896;DHT22;2463;49.948;8.472;2023-11-21T16:09:22;12.40;99.90
4896;DHT22;2463;49.948;8.472;2023-11-21T16:11:52;12.40;99.90
4896;DHT22;2463;49.948;8.472;2023-11-21T16:14:20;12.40;99.90
4896;DHT22;2463;49.948;8.472;2023-11-21T16:16:52;12.40;99.90
4896;DHT22;2463;49.948;8.472;2023-11-21T16:19:19;12.30;99.90
4896;DHT22;2463;49.948;8.472;2023-11-21T16:21:48;12.30;99.90